createdAt,value
2023-03-01T00:01:17.677Z,76.55
2023-03-01T00:03:45.285Z,72.88
2023-03-01T00:06:12.858Z,67.60
2023-03-01T00:08:40.123Z,67.72
2023-03-01T00:11:22.210Z,67.30
2023-03-01T00:13:50.718Z,72.07
2023-03-01T00:16:26.017Z,71.20
2023-03-01T00:18:53.249Z,73.45
2023-03-01T00:21:23.050Z,67.78
2023-03-01T00:23:50.609Z,74.93
2023-03-01T00:26:19.200Z,69.43
2023-03-01T00:28:46.599Z,70.00
2023-03-01T00:31:16.861Z,66.63
2023-03-01T00:33:44.451Z,62.33
2023-03-01T00:36:13.032Z,66.72
2023-03-01T00:38:42.133Z,66.00
2023-03-01T00:41:12.035Z,66.78
2023-03-01T00:43:39.385Z,64.05
2023-03-01T00:46:12.597Z,59.45
2023-03-01T00:48:39.788Z,70.72
2023-03-01T00:51:18.344Z,65.15
2023-03-01T00:53:46.633Z,65.88
2023-03-01T00:56:15.639Z,59.10
2023-03-01T00:58:43.045Z,57.30
2023-03-01T01:01:28.633Z,63.25
2023-03-01T01:03:58.909Z,60.72
2023-03-01T01:06:29.386Z,64.85
2023-03-01T01:08:57.480Z,62.47
2023-03-01T01:11:26.472Z,67.43
2023-03-01T01:13:54.200Z,69.22
2023-03-01T01:16:22.874Z,72.25
2023-03-01T01:18:50.889Z,59.15
2023-03-01T01:21:20.686Z,66.30
2023-03-01T01:23:48.274Z,63.95
2023-03-01T01:26:18.801Z,68.18
2023-03-01T01:28:46.216Z,58.22
2023-03-01T01:31:13.238Z,69.20
2023-03-01T01:33:40.332Z,68.05
2023-03-01T01:36:08.639Z,67.57
2023-03-01T01:38:36.635Z,70.47
2023-03-01T01:41:03.936Z,63.38
2023-03-01T01:43:37.132Z,64.20
2023-03-01T01:46:24.478Z,70.40
2023-03-01T01:48:56.086Z,65.22
2023-03-01T01:51:28.398Z,65.20
2023-03-01T01:54:01.612Z,69.43
2023-03-01T01:56:30.274Z,62.08
2023-03-01T01:58:57.792Z,66.32
2023-03-01T02:01:25.137Z,66.05
2023-03-01T02:03:52.795Z,68.20
2023-03-01T02:06:33.677Z,66.90
2023-03-01T02:09:05.658Z,66.13
2023-03-01T02:11:33.457Z,65.80
2023-03-01T02:14:00.752Z,69.45
2023-03-01T02:16:28.357Z,60.05
2023-03-01T02:18:55.862Z,64.15
2023-03-01T02:21:23.034Z,61.40
2023-03-01T02:23:49.984Z,65.85
2023-03-01T02:26:32.424Z,57.80
2023-03-01T02:29:00.311Z,64.32
2023-03-01T02:31:42.615Z,57.35
2023-03-01T02:34:16.742Z,61.43
2023-03-01T02:36:46.351Z,60.13
2023-03-01T02:39:19.703Z,63.08
2023-03-01T02:41:52.776Z,59.50
2023-03-01T02:46:55.272Z,53.15
2023-03-01T02:49:22.616Z,63.47
2023-03-01T02:52:15.851Z,64.05
2023-03-01T02:54:43.110Z,56.08
2023-03-01T02:57:10.681Z,61.30
2023-03-01T02:59:40.346Z,65.35
2023-03-01T03:02:08.698Z,65.43
2023-03-01T03:04:35.921Z,52.58
2023-03-01T03:07:02.835Z,65.10
2023-03-01T03:09:30.515Z,62.80
2023-03-01T03:11:57.367Z,65.68
2023-03-01T03:14:24.624Z,62.00
2023-03-01T03:16:52.299Z,61.55
2023-03-01T03:19:20.221Z,60.20
2023-03-01T03:21:47.197Z,57.92
2023-03-01T03:24:14.084Z,65.65
2023-03-01T03:26:41.278Z,64.45
2023-03-01T03:29:08.137Z,56.35
2023-03-01T03:31:35.519Z,62.90
2023-03-01T03:34:02.747Z,59.35
2023-03-01T03:36:29.804Z,54.47
2023-03-01T03:38:57.226Z,55.45
2023-03-01T03:41:24.047Z,58.95
2023-03-01T03:43:50.944Z,63.22
2023-03-01T03:46:18.447Z,60.28
2023-03-01T03:48:46.703Z,59.40
2023-03-01T03:51:15.925Z,59.10
2023-03-01T03:53:44.079Z,72.93
2023-03-01T03:56:11.285Z,57.30
2023-03-01T03:58:38.580Z,57.85
2023-03-01T04:01:05.524Z,64.15
2023-03-01T04:03:33.973Z,62.88
2023-03-01T04:06:01.914Z,63.63
2023-03-01T04:08:29.423Z,68.90
2023-03-01T04:11:25.133Z,59.33
2023-03-01T04:13:54.273Z,63.58
2023-03-01T04:16:21.395Z,72.57
2023-03-01T04:18:48.497Z,64.00
2023-03-01T04:21:15.813Z,64.05
2023-03-01T04:23:43.040Z,59.92
2023-03-01T04:26:09.988Z,63.33
2023-03-01T04:28:44.006Z,66.13
2023-03-01T04:31:19.508Z,56.75
2023-03-01T04:33:55.179Z,61.88
2023-03-01T04:36:28.242Z,58.92
2023-03-01T04:38:56.390Z,67.97
2023-03-01T04:41:25.109Z,58.97
2023-03-01T04:43:52.479Z,63.55
2023-03-01T04:46:21.719Z,58.75
2023-03-01T04:48:49.035Z,62.30
2023-03-01T04:51:16.890Z,60.47
2023-03-01T04:53:44.989Z,55.67
2023-03-01T04:56:12.384Z,65.18
2023-03-01T04:58:39.668Z,55.08
2023-03-01T05:01:18.420Z,57.72
2023-03-01T05:03:50.429Z,60.83
2023-03-01T05:06:19.061Z,65.97
2023-03-01T05:08:45.938Z,62.85
2023-03-01T05:11:13.209Z,62.45
2023-03-01T05:13:40.849Z,68.70
2023-03-01T05:16:12.379Z,61.40
2023-03-01T05:18:41.028Z,55.60
2023-03-01T05:21:13.136Z,69.30
2023-03-01T05:23:40.669Z,59.40
2023-03-01T05:26:16.078Z,58.80
2023-03-01T05:28:49.788Z,64.70
2023-03-01T05:31:16.808Z,59.58
2023-03-01T05:33:44.499Z,55.25
2023-03-01T05:36:11.581Z,59.13
2023-03-01T05:38:38.815Z,55.83
2023-03-01T05:41:05.702Z,55.38
2023-03-01T05:43:35.743Z,63.13
2023-03-01T05:46:02.981Z,61.08
2023-03-01T05:48:29.929Z,61.35
2023-03-01T05:51:01.420Z,62.05
2023-03-01T05:53:28.398Z,68.50
2023-03-01T05:55:55.592Z,64.28
2023-03-01T05:58:22.792Z,60.15
2023-03-01T06:00:50.244Z,61.33
2023-03-01T06:03:18.698Z,67.13
2023-03-01T06:05:46.147Z,68.63
2023-03-01T06:08:14.310Z,71.15
2023-03-01T06:10:41.767Z,73.90
2023-03-01T06:13:08.895Z,76.07
2023-03-01T06:15:36.239Z,78.35
2023-03-01T06:18:03.508Z,72.53
2023-03-01T06:20:31.217Z,76.00
2023-03-01T06:22:58.492Z,65.18
2023-03-01T06:25:27.405Z,67.93
2023-03-01T06:27:54.454Z,68.93
2023-03-01T06:30:23.123Z,65.07
2023-03-01T06:32:50.748Z,67.72
2023-03-01T06:35:19.919Z,70.20
2023-03-01T06:37:48.416Z,63.70
2023-03-01T06:40:16.377Z,64.15
2023-03-01T06:42:48.380Z,67.35
2023-03-01T06:45:15.554Z,62.28
2023-03-01T06:47:42.332Z,64.43
2023-03-01T06:50:10.309Z,63.03
2023-03-01T06:52:37.201Z,54.47
2023-03-01T06:55:04.521Z,59.22
2023-03-01T06:57:31.739Z,53.42
2023-03-01T06:59:58.713Z,67.78
2023-03-01T07:02:25.966Z,50.65
2023-03-01T07:04:53.440Z,54.30
2023-03-01T07:07:21.046Z,50.75
2023-03-01T07:09:48.349Z,54.10
2023-03-01T07:12:15.190Z,49.38
2023-03-01T07:14:42.541Z,56.67
2023-03-01T07:17:09.718Z,52.97
2023-03-01T07:19:36.592Z,51.67
2023-03-01T07:22:05.340Z,53.90
2023-03-01T07:24:32.677Z,47.80
2023-03-01T07:26:59.534Z,55.53
2023-03-01T07:29:26.346Z,55.40
2023-03-01T07:31:53.264Z,52.38
2023-03-01T07:34:20.208Z,48.70
2023-03-01T07:36:47.101Z,48.42
2023-03-01T07:39:13.973Z,47.38
2023-03-01T07:41:41.300Z,47.85
2023-03-01T07:44:08.294Z,44.58
2023-03-01T07:46:35.117Z,48.72
2023-03-01T07:49:02.118Z,48.95
2023-03-01T07:51:28.996Z,48.45
2023-03-01T07:53:55.872Z,44.70
2023-03-01T07:56:23.189Z,54.88
2023-03-01T07:58:51.186Z,71.50
2023-03-01T08:01:20.153Z,47.78
2023-03-01T08:03:47.126Z,45.50
2023-03-01T08:06:15.809Z,45.92
2023-03-01T08:08:42.857Z,43.58
2023-03-01T08:11:12.431Z,47.13
2023-03-01T08:13:39.689Z,40.22
2023-03-01T08:16:12.757Z,52.97
2023-03-01T08:18:39.770Z,49.80
2023-03-01T08:21:08.884Z,50.08
2023-03-01T08:23:35.991Z,44.38
2023-03-01T08:26:22.330Z,46.28
2023-03-01T08:28:50.863Z,40.75
2023-03-01T08:31:23.277Z,46.97
2023-03-01T08:33:56.334Z,44.65
2023-03-01T08:39:01.411Z,41.20
2023-03-01T08:41:28.799Z,39.45
2023-03-01T08:43:59.812Z,37.30
2023-03-01T08:46:32.485Z,36.30
2023-03-01T08:49:00.085Z,35.60
2023-03-01T08:51:27.622Z,32.33
2023-03-01T08:53:54.491Z,32.00
2023-03-01T08:56:21.376Z,30.70
2023-03-01T08:58:49.375Z,31.50
2023-03-01T09:01:18.588Z,31.63
2023-03-01T09:03:47.357Z,35.13
2023-03-01T09:06:15.241Z,36.55
2023-03-01T09:08:45.465Z,36.35
2023-03-01T09:11:16.320Z,34.03
2023-03-01T09:13:44.392Z,32.35
2023-03-01T09:16:14.230Z,31.10
2023-03-01T09:18:41.605Z,33.08
2023-03-01T09:21:18.332Z,32.97
2023-03-01T09:23:48.734Z,35.03
2023-03-01T09:26:22.891Z,38.78
2023-03-01T09:28:51.698Z,41.35
2023-03-01T09:31:20.266Z,38.65
2023-03-01T09:33:49.143Z,37.38
2023-03-01T09:36:19.082Z,33.83
2023-03-01T09:38:46.445Z,32.28
2023-03-01T09:41:19.115Z,32.17
2023-03-01T09:43:56.524Z,29.48
2023-03-01T09:46:24.994Z,35.03
2023-03-01T09:49:08.471Z,41.78
2023-03-01T09:51:37.116Z,31.30
2023-03-01T09:54:06.053Z,29.88
2023-03-01T09:56:54.097Z,26.42
2023-03-01T09:59:23.799Z,28.25
2023-03-01T10:02:02.416Z,29.92
2023-03-01T10:04:43.858Z,24.98
2023-03-01T10:07:10.724Z,26.00
2023-03-01T10:09:42.907Z,24.98
2023-03-01T10:12:24.506Z,23.27
2023-03-01T10:15:13.599Z,29.45
2023-03-01T10:17:52.598Z,24.23
2023-03-01T10:20:23.467Z,27.42
2023-03-01T10:22:56.206Z,24.33
2023-03-01T10:25:43.417Z,29.40
2023-03-01T10:28:40.437Z,26.48
2023-03-01T10:31:14.560Z,31.08
2023-03-01T10:33:42.461Z,29.70
2023-03-01T10:36:09.706Z,32.65
2023-03-01T10:38:55.387Z,24.25
2023-03-01T10:41:24.456Z,20.90
2023-03-01T10:43:56.605Z,24.98
2023-03-01T10:46:36.673Z,27.53
2023-03-01T10:49:17.320Z,30.15
2023-03-01T10:51:47.276Z,25.08
2023-03-01T10:54:30.804Z,39.42
2023-03-01T10:57:00.309Z,28.35
2023-03-01T10:59:39.063Z,26.20
2023-03-01T11:02:27.065Z,25.63
2023-03-01T11:05:16.372Z,22.67
2023-03-01T11:08:11.275Z,23.27
2023-03-01T11:10:38.171Z,19.55
2023-03-01T11:13:16.114Z,23.88
2023-03-01T11:15:44.357Z,21.58
2023-03-01T11:18:23.679Z,23.58
2023-03-01T11:20:56.974Z,24.00
2023-03-01T11:23:24.743Z,24.65
2023-03-01T11:26:01.212Z,26.05
2023-03-01T11:28:30.663Z,23.90
2023-03-01T11:31:09.105Z,26.98
2023-03-01T11:33:40.689Z,25.55
2023-03-01T11:36:16.798Z,27.05
2023-03-01T11:38:44.312Z,29.00
2023-03-01T11:41:43.820Z,25.98
2023-03-01T11:44:21.105Z,27.27
2023-03-01T11:47:15.198Z,21.15
2023-03-01T11:50:14.601Z,20.30
2023-03-01T11:52:53.556Z,22.45
2023-03-01T11:55:38.461Z,25.20
2023-03-01T11:58:08.333Z,23.40
2023-03-01T12:01:05.805Z,23.20
2023-03-01T12:03:43.988Z,26.45
2023-03-01T12:06:25.250Z,23.25
2023-03-01T12:09:01.181Z,25.50
2023-03-01T12:12:04.691Z,26.65
2023-03-01T12:14:53.368Z,30.02
2023-03-01T12:17:56.750Z,22.65
2023-03-01T12:20:43.952Z,26.17
2023-03-01T12:23:32.311Z,24.70
2023-03-01T12:26:21.619Z,31.63
2023-03-01T12:29:09.622Z,21.48
2023-03-01T12:31:55.174Z,18.83
2023-03-01T12:34:34.074Z,23.13
2023-03-01T12:37:27.003Z,23.13
2023-03-01T12:40:14.058Z,23.70
2023-03-01T12:42:58.635Z,25.13
2023-03-01T12:46:06.380Z,32.25
2023-03-01T12:48:39.998Z,28.17
2023-03-01T12:51:11.919Z,33.70
2023-03-01T12:53:47.817Z,32.55
2023-03-01T12:56:24.116Z,21.92
2023-03-01T12:59:18.503Z,25.25
2023-03-01T13:02:09.504Z,25.33
2023-03-01T13:05:01.461Z,23.00
2023-03-01T13:07:28.686Z,18.95
2023-03-01T13:10:31.978Z,22.63
2023-03-01T13:12:59.239Z,22.02
2023-03-01T13:15:40.800Z,24.92
2023-03-01T13:18:16.522Z,31.50
2023-03-01T13:20:43.394Z,25.20
2023-03-01T13:23:22.668Z,26.20
2023-03-01T13:26:01.599Z,26.85
2023-03-01T13:28:37.506Z,28.25
2023-03-01T13:31:08.121Z,22.83
2023-03-01T13:33:51.472Z,24.50
2023-03-01T13:36:31.006Z,24.45
2023-03-01T13:39:33.401Z,24.40
2023-03-01T13:42:01.438Z,23.75
2023-03-01T13:44:37.000Z,23.35
2023-03-01T13:47:15.025Z,23.67
2023-03-01T13:49:51.723Z,24.08
2023-03-01T13:53:00.413Z,21.35
2023-03-01T13:55:45.888Z,23.17
2023-03-01T13:58:23.890Z,24.25
2023-03-01T14:01:02.889Z,22.55
2023-03-01T14:03:31.550Z,25.30
2023-03-01T14:06:16.204Z,20.42
2023-03-01T14:08:45.661Z,24.40
2023-03-01T14:11:15.035Z,29.20
2023-03-01T14:14:16.216Z,24.70
2023-03-01T14:17:03.306Z,23.45
2023-03-01T14:19:33.908Z,24.00
2023-03-01T14:22:30.405Z,29.08
2023-03-01T14:25:03.589Z,19.85
2023-03-01T14:30:18.801Z,20.33
2023-03-01T14:32:58.321Z,26.08
2023-03-01T14:35:29.154Z,23.60
2023-03-01T14:37:56.509Z,24.55
2023-03-01T14:40:31.735Z,26.02
2023-03-01T14:43:02.500Z,24.27
2023-03-01T14:45:31.862Z,22.98
2023-03-01T14:48:05.270Z,26.33
2023-03-01T14:50:35.061Z,23.30
2023-03-01T14:53:05.949Z,28.20
2023-03-01T14:55:36.789Z,37.38
2023-03-01T14:58:12.828Z,26.80
2023-03-01T15:00:46.461Z,30.70
2023-03-01T15:03:18.738Z,52.90
2023-03-01T15:05:45.804Z,37.23
2023-03-01T15:08:26.135Z,32.70
2023-03-01T15:11:25.618Z,37.70
2023-03-01T15:13:53.778Z,24.98
2023-03-01T15:16:24.465Z,30.08
2023-03-01T15:18:59.245Z,32.33
2023-03-01T15:21:32.948Z,36.78
2023-03-01T15:24:06.862Z,53.97
2023-03-01T15:26:43.331Z,33.13
2023-03-01T15:29:19.365Z,31.95
2023-03-01T15:32:00.187Z,32.63
2023-03-01T15:34:31.198Z,35.25
2023-03-01T15:37:01.561Z,39.42
2023-03-01T15:39:29.332Z,35.10
2023-03-01T15:41:56.714Z,46.65
2023-03-01T15:44:42.738Z,42.92
2023-03-01T15:47:26.344Z,41.50
2023-03-01T15:49:55.842Z,38.67
2023-03-01T15:52:40.295Z,40.17
2023-03-01T15:55:21.262Z,41.83
2023-03-01T15:57:48.661Z,39.00
2023-03-01T16:00:18.898Z,49.40
2023-03-01T16:02:46.208Z,39.83
2023-03-01T16:05:24.256Z,44.15
2023-03-01T16:07:52.029Z,45.33
2023-03-01T16:10:20.071Z,40.03
2023-03-01T16:12:50.863Z,42.83
2023-03-01T16:15:31.988Z,43.53
2023-03-01T16:17:59.946Z,46.28
2023-03-01T16:20:30.418Z,43.75
2023-03-01T16:23:03.754Z,51.38
2023-03-01T16:25:32.427Z,42.85
2023-03-01T16:28:01.828Z,50.95
2023-03-01T16:30:28.867Z,37.70
2023-03-01T16:32:55.722Z,39.30
2023-03-01T16:35:24.425Z,41.58
2023-03-01T16:37:53.626Z,46.42
2023-03-01T16:40:22.961Z,43.47
2023-03-01T16:42:51.175Z,44.80
2023-03-01T16:45:24.324Z,74.50
2023-03-01T16:47:54.454Z,49.50
2023-03-01T16:50:23.066Z,42.58
2023-03-01T16:52:49.931Z,45.90
2023-03-01T16:55:17.344Z,43.08
2023-03-01T16:57:44.394Z,57.70
2023-03-01T17:00:14.218Z,50.72
2023-03-01T17:02:42.220Z,66.30
2023-03-01T17:05:12.063Z,52.85
2023-03-01T17:07:39.470Z,50.63
2023-03-01T17:10:09.186Z,47.05
2023-03-01T17:12:37.290Z,46.35
2023-03-01T17:15:05.508Z,53.63
2023-03-01T17:17:32.669Z,54.58
2023-03-01T17:19:59.952Z,64.43
2023-03-01T17:22:26.907Z,61.00
2023-03-01T17:24:54.255Z,59.13
2023-03-01T17:27:21.911Z,67.43
2023-03-01T17:29:49.814Z,71.03
2023-03-01T17:32:16.779Z,93.18
2023-03-01T17:34:44.157Z,73.40
2023-03-01T17:37:11.060Z,87.22
2023-03-01T17:39:38.281Z,82.93
2023-03-01T17:42:06.669Z,69.53
2023-03-01T17:44:34.764Z,78.47
2023-03-01T17:47:03.418Z,77.50
2023-03-01T17:49:30.928Z,69.63
2023-03-01T17:51:58.278Z,80.13
2023-03-01T17:54:25.674Z,80.22
2023-03-01T17:56:52.946Z,74.07
2023-03-01T17:59:20.246Z,71.72
2023-03-01T18:01:47.606Z,73.18
2023-03-01T18:04:14.953Z,71.28
2023-03-01T18:06:41.954Z,80.78
2023-03-01T18:09:09.556Z,82.75
2023-03-01T18:11:37.174Z,80.65
2023-03-01T18:14:04.793Z,76.05
2023-03-01T18:16:34.119Z,75.18
2023-03-01T18:19:01.748Z,74.75
2023-03-01T18:21:30.125Z,76.45
2023-03-01T18:23:59.515Z,65.40
2023-03-01T18:26:27.904Z,66.55
2023-03-01T18:28:58.280Z,57.10
2023-03-01T18:31:25.940Z,73.03
2023-03-01T18:33:57.978Z,70.82
2023-03-01T18:36:30.086Z,62.83
2023-03-01T18:38:57.217Z,68.97
2023-03-01T18:41:28.341Z,72.65
2023-03-01T18:43:57.126Z,69.90
2023-03-01T18:46:24.491Z,86.80
2023-03-01T18:48:52.884Z,89.85
2023-03-01T18:51:28.659Z,107.60
2023-03-01T18:53:59.349Z,113.30
2023-03-01T18:56:28.825Z,119.53
2023-03-01T18:58:56.529Z,129.00
2023-03-01T19:01:28.814Z,127.75
2023-03-01T19:03:58.979Z,130.75
2023-03-01T19:06:30.676Z,118.72
2023-03-01T19:08:58.007Z,124.72
2023-03-01T19:11:27.396Z,122.95
2023-03-01T19:13:54.807Z,119.85
2023-03-01T19:16:24.866Z,123.03
2023-03-01T19:18:51.922Z,150.10
2023-03-01T19:21:22.334Z,116.43
2023-03-01T19:23:49.578Z,118.57
2023-03-01T19:26:19.688Z,116.93
2023-03-01T19:28:47.502Z,110.28
2023-03-01T19:31:17.986Z,122.05
2023-03-01T19:33:45.230Z,120.43
2023-03-01T19:36:14.270Z,105.03
2023-03-01T19:38:42.874Z,112.78
2023-03-01T19:41:14.873Z,96.93
2023-03-01T19:43:43.067Z,94.10
2023-03-01T19:46:11.316Z,94.60
2023-03-01T19:48:40.517Z,87.82
2023-03-01T19:51:08.928Z,86.55
2023-03-01T19:53:36.991Z,83.97
2023-03-01T19:56:04.491Z,91.90
2023-03-01T19:58:32.454Z,87.10
2023-03-01T20:01:00.883Z,101.38
2023-03-01T20:03:33.674Z,85.70
2023-03-01T20:06:02.658Z,79.25
2023-03-01T20:08:30.815Z,79.65
2023-03-01T20:11:05.374Z,98.03
2023-03-01T20:13:32.852Z,74.82
2023-03-01T20:16:00.210Z,74.60
2023-03-01T20:18:28.177Z,77.05
2023-03-01T20:20:55.622Z,81.57
2023-03-01T20:23:23.343Z,77.25
2023-03-01T20:25:50.427Z,79.40
2023-03-01T20:28:18.617Z,65.97
2023-03-01T20:30:46.172Z,68.80
2023-03-01T20:33:14.121Z,73.05
2023-03-01T20:35:42.674Z,71.28
2023-03-01T20:38:10.139Z,74.95
2023-03-01T20:40:38.100Z,73.13
2023-03-01T20:43:05.500Z,71.68
2023-03-01T20:45:32.726Z,78.20
2023-03-01T20:47:59.585Z,77.28
2023-03-01T20:50:26.520Z,66.47
2023-03-01T20:52:53.840Z,72.53
2023-03-01T20:55:21.184Z,64.80
2023-03-01T20:57:48.417Z,67.53
2023-03-01T21:00:16.441Z,64.13
2023-03-01T21:02:44.123Z,63.03
2023-03-01T21:05:11.142Z,60.03
2023-03-01T21:07:38.410Z,60.20
2023-03-01T21:10:05.989Z,63.47
2023-03-01T21:12:33.325Z,59.95
2023-03-01T21:15:00.233Z,60.83
2023-03-01T21:17:27.559Z,61.67
2023-03-01T21:19:54.840Z,57.08
2023-03-01T21:22:21.756Z,66.07
2023-03-01T21:24:50.186Z,68.20
2023-03-01T21:27:18.550Z,59.25
2023-03-01T21:29:46.730Z,64.95
2023-03-01T21:32:14.899Z,72.32
2023-03-01T21:34:42.198Z,70.10
2023-03-01T21:37:10.500Z,75.28
2023-03-01T21:39:38.337Z,78.05
2023-03-01T21:42:05.782Z,71.43
2023-03-01T21:44:34.007Z,90.82
2023-03-01T21:47:01.754Z,77.40
2023-03-01T21:49:29.181Z,80.00
2023-03-01T21:51:56.423Z,83.18
2023-03-01T21:54:23.304Z,81.35
2023-03-01T21:56:51.088Z,84.53
2023-03-01T21:59:20.626Z,90.30
2023-03-01T22:01:48.521Z,94.65
2023-03-01T22:04:16.046Z,95.65
2023-03-01T22:06:45.661Z,89.15
2023-03-01T22:09:15.967Z,93.28
2023-03-01T22:11:49.009Z,90.22
2023-03-01T22:14:17.584Z,91.35
2023-03-01T22:16:45.689Z,95.50
2023-03-01T22:19:14.408Z,90.97
2023-03-01T22:21:43.029Z,109.75
2023-03-01T22:24:11.522Z,112.63
2023-03-01T22:26:43.668Z,101.63
2023-03-01T22:29:16.456Z,99.00
2023-03-01T22:31:43.852Z,90.78
2023-03-01T22:34:11.179Z,96.63
2023-03-01T22:36:39.456Z,86.95
2023-03-01T22:39:06.784Z,103.22
2023-03-01T22:41:44.286Z,87.22
2023-03-01T22:44:17.087Z,92.70
2023-03-01T22:46:44.754Z,96.15
2023-03-01T22:49:12.154Z,87.93
2023-03-01T22:51:41.689Z,95.55
2023-03-01T22:54:09.839Z,98.18
2023-03-01T22:56:38.118Z,87.40
2023-03-01T22:59:08.873Z,83.55
2023-03-01T23:01:37.151Z,82.22
2023-03-01T23:04:04.236Z,80.88
2023-03-01T23:06:31.779Z,80.63
2023-03-01T23:09:01.845Z,85.63
2023-03-01T23:11:29.602Z,80.45
2023-03-01T23:13:56.879Z,76.82
2023-03-01T23:16:27.204Z,79.18
2023-03-01T23:18:55.664Z,84.10
2023-03-01T23:21:23.181Z,79.45
2023-03-01T23:23:51.078Z,69.75
2023-03-01T23:26:18.965Z,161.35
2023-03-01T23:28:46.049Z,112.05
2023-03-01T23:31:15.394Z,81.80
2023-03-01T23:33:44.565Z,77.70
2023-03-01T23:36:21.754Z,76.13
2023-03-01T23:38:50.909Z,76.03
2023-03-01T23:41:22.812Z,76.05
2023-03-01T23:43:52.791Z,73.80
2023-03-01T23:46:22.043Z,76.40
2023-03-01T23:48:49.442Z,72.35
2023-03-01T23:51:18.068Z,71.53
2023-03-01T23:54:01.156Z,77.05
2023-03-01T23:56:36.733Z,77.03
2023-03-01T23:59:16.104Z,70.90
